Latest Weather Observations for Norah Head

IDN60901

Issued at 11:01 am EST Saturday 5 September 2015 (issued every 10 minutes, with the page automatically refreshed every 10 minutes)

About weather observations | Map of Sydney area stations | Latest observations for Sydney area | Other Formats
Station Details ID: 061366 Name: NORAH HEAD AWS Lat: -33.28 Lon: 151.58 Height: 18.8 m
Data from the previous 72 hours. | See also: Recent months at Norah Head
Date/Time
EST
Tmp

°C
App
Tmp
°C
Dew
Point
°C
Rel
Hum
%
Delta-T

°C
Wind Press
QNH
hPa
Press
MSL
hPa
Rain
since
9 am
mm
Dir
 
Spd
km/h
Gust
km/h
Spd
kts
Gust
kts
05/10:30am 19.3 19.1 13.5 69 3.3 NNE 7 9 4 5 1021.6 1021.5 2.8
05/10:00am 19.1 18.8 13.3 69 3.3 NNW 7 11 4 6 1021.9 1021.8 1.2
05/09:30am 17.7 17.6 13.2 75 2.5 WNW 6 9 3 5 1022.0 1021.9 1.0
05/09:00am 16.4 16.0 12.4 77 2.2 WNW 6 7 3 4 1022.2 1022.1 24.4
05/08:30am 15.8 15.4 12.5 81 1.8 NW 6 9 3 5 1022.2 1022.1 23.4
05/08:00am 14.0 13.4 12.2 89 1.0 W 7 13 4 7 1022.3 1022.2 22.8
05/07:30am 12.8 11.2 11.5 92 0.7 W 11 15 6 8 1022.1 1022.0 22.8
05/07:00am 12.5 10.8 11.2 92 0.7 W 11 19 6 10 1021.8 1021.7 22.4
05/06:30am 12.6 10.5 11.0 90 0.8 W 13 15 7 8 1021.4 1021.3 22.4
05/06:00am 12.5 10.7 10.7 89 0.9 W 11 15 6 8 1021.1 1021.0 22.4
05/05:30am 12.8 11.0 11.0 89 0.9 W 11 13 6 7 1020.9 1020.8 22.4
05/05:00am 12.4 10.7 11.3 93 0.6 W 11 15 6 8 1020.7 1020.6 22.2
05/04:30am 12.5 11.2 11.4 93 0.6 W 9 15 5 8 1020.6 1020.5 22.0
05/04:00am 12.8 12.1 11.4 91 0.7 WNW 6 9 3 5 1020.3 1020.2 22.0
05/03:30am 12.5 11.9 11.6 94 0.5 WNW 6 9 3 5 1020.3 1020.2 21.8
05/03:00am 12.7 11.8 11.4 92 0.7 WNW 7 11 4 6 1020.3 1020.2 3.6
05/02:30am 12.9 11.2 12.3 96 0.3 W 13 17 7 9 1020.7 1020.6 3.0
05/02:00am 13.6 12.5 11.8 89 1.0 W 9 11 5 6 1021.1 1021.0 3.0
05/01:30am 13.9 12.6 11.2 84 1.4 WSW 9 9 5 5 1021.4 1021.3 2.6
05/01:00am 13.7 12.4 12.4 92 0.7 W 11 13 6 7 1021.7 1021.6 2.6
05/12:30am 13.7 12.2 11.9 89 1.0 W 11 15 6 8 1021.8 1021.7 2.4
05/12:00am 13.6 12.6 12.2 91 0.8 W 9 13 5 7 1022.0 1021.9 2.4
 
Date/Time
EST
Tmp

°C
App
Tmp
°C
Dew
Point
°C
Rel
Hum
%
Delta-T

°C
Wind Press
QNH
hPa
Press
MSL
hPa
Rain
since
9 am
mm
Dir
 
Spd
km/h
Gust
km/h
Spd
kts
Gust
kts
04/11:30pm 13.8 12.3 12.0 89 1.0 W 11 13 6 7 1022.1 1022.0 2.2
04/11:00pm 14.4 13.7 12.1 86 1.2 WSW 7 13 4 7 1022.2 1022.1 2.2
04/10:30pm 15.1 15.3 10.7 75 2.3 CALM 0 0 0 0 1022.2 1022.1 2.2
04/10:00pm 14.6 13.7 11.2 80 1.8 SW 7 11 4 6 1022.3 1022.2 2.2
04/09:30pm 14.8 13.5 11.4 80 1.8 W 9 13 5 7 1022.1 1022.0 2.2
04/09:00pm 14.6 13.0 11.7 83 1.6 W 11 15 6 8 1022.1 1022.0 2.2
04/08:30pm 14.9 13.6 11.3 79 1.9 W 9 11 5 6 1022.0 1021.9 2.2
04/08:00pm 15.7 14.8 10.7 72 2.6 SE 6 9 3 5 1022.0 1021.9 2.2
04/07:30pm 15.8 14.4 10.8 72 2.7 SSE 9 11 5 6 1021.9 1021.8 2.0
04/07:00pm 15.8 13.8 11.4 75 2.4 SSE 13 17 7 9 1021.6 1021.5 1.8
04/06:30pm 15.8 13.2 10.8 72 2.7 SSE 15 19 8 10 1021.3 1021.2 1.8
04/06:00pm 15.5 13.0 11.1 75 2.3 SSE 15 20 8 11 1021.0 1020.9 1.4
04/05:30pm 15.9 12.7 11.1 73 2.6 S 19 22 10 12 1020.9 1020.8 1.4
04/05:00pm 16.2 12.5 11.4 73 2.6 S 22 28 12 15 1020.7 1020.6 1.4
04/04:30pm 16.5 13.5 11.9 74 2.5 S 19 24 10 13 1020.6 1020.5 1.4
04/04:00pm 16.9 13.9 12.4 75 2.5 S 20 28 11 15 1020.6 1020.5 1.2
04/03:30pm 16.7 12.4 12.0 74 2.6 S 26 33 14 18 1020.5 1020.4 1.2
04/03:00pm 16.7 12.9 12.5 76 2.3 S 24 33 13 18 1020.4 1020.3 1.2
04/02:30pm 16.6 11.1 12.4 76 2.3 S 33 41 18 22 1020.3 1020.2 1.0
04/02:00pm 16.7 12.3 13.0 79 2.1 S 28 41 15 22 1020.2 1020.1 1.0
04/01:30pm 16.4 12.1 13.3 82 1.7 S 28 37 15 20 1020.3 1020.2 1.0
04/01:00pm 15.8 11.6 13.6 87 1.2 SSW 28 39 15 21 1020.6 1020.5 0.6
04/12:30pm 14.8 13.9 13.8 94 0.6 SW 11 22 6 12 1020.8 1020.7 0.6
04/12:00pm 14.8 12.8 14.0 95 0.4 SSW 17 24 9 13 1021.0 1020.9 0.2
04/11:30am 14.3 13.1 14.1 99 0.1 SW 13 20 7 11 1021.4 1021.3 0.2
04/11:00am 13.8 12.9 13.6 99 0.1 SW 11 19 6 10 1021.7 1021.6 0.2
04/10:30am 14.2 12.7 14.2 100 0.0 SW 15 24 8 13 1021.8 1021.7 0.2
04/10:00am 13.8 12.9 13.8 100 0.0 SW 11 20 6 11 1021.6 1021.5 0.0
04/09:30am 14.0 12.4 14.0 100 0.0 SSW 15 22 8 12 1021.5 1021.4 0.0
04/09:00am 14.0 12.3 13.7 98 0.2 SW 15 35 8 19 1021.2 1021.1 -
04/08:30am 13.7 11.5 13.4 98 0.2 SW 17 26 9 14 1020.8 1020.7 -
04/08:00am 13.4 11.9 13.2 99 0.1 WSW 13 20 7 11 1020.1 1020.0 -
04/07:30am 13.5 11.2 13.0 97 0.3 SW 17 30 9 16 1019.7 1019.6 -
04/07:00am 13.7 10.6 13.4 98 0.2 SW 22 35 12 19 1018.8 1018.7 -
04/06:30am 13.8 10.7 13.3 97 0.3 SW 22 33 12 18 1018.7 1018.6 -
04/06:00am 13.5 11.5 12.6 94 0.5 WSW 15 20 8 11 1018.5 1018.4 -
04/05:30am 13.7 11.7 12.8 94 0.5 SW 15 28 8 15 1017.8 1017.7 -
04/05:00am 13.2 11.0 12.1 93 0.6 SW 15 24 8 13 1017.4 1017.3 -
04/04:30am 13.1 10.6 12.2 94 0.5 SW 17 24 9 13 1017.0 1016.9 -
04/04:00am 13.1 10.5 12.0 93 0.6 SW 17 26 9 14 1016.4 1016.3 -
04/03:30am 13.2 10.6 12.1 93 0.6 SW 17 30 9 16 1015.9 1015.8 -
04/03:00am 13.0 10.5 12.4 96 0.3 SW 17 28 9 15 1015.6 1015.5 -
04/02:30am 12.9 11.1 12.1 95 0.4 WSW 13 24 7 13 1015.7 1015.6 -
04/02:00am 14.0 10.7 12.9 93 0.6 SW 22 33 12 18 1015.6 1015.5 -
04/01:30am 14.3 10.5 12.5 89 1.0 SW 24 37 13 20 1015.2 1015.1 -
04/01:18am 14.6 9.5 13.1 91 0.8 SSW 32 50 17 27 1015.1 1015.0 -
04/01:00am 14.9 9.8 11.9 82 1.6 SW 30 44 16 24 1014.6 1014.5 -
04/12:44am 14.8 9.5 11.4 80 1.8 SW 30 50 16 27 1014.3 1014.2 -
04/12:30am 15.4 9.1 12.2 81 1.7 SSW 37 54 20 29 1014.1 1014.0 -
04/12:00am 14.9 10.4 9.9 72 2.6 SW 24 37 13 20 1013.6 1013.5 -
 
Date/Time
EST
Tmp

°C
App
Tmp
°C
Dew
Point
°C
Rel
Hum
%
Delta-T

°C
Wind Press
QNH
hPa
Press
MSL
hPa
Rain
since
9 am
mm
Dir
 
Spd
km/h
Gust
km/h
Spd
kts
Gust
kts
03/11:30pm 14.8 10.4 10.4 75 2.3 SW 24 43 13 23 1012.9 1012.8 -
03/11:00pm 14.3 10.1 9.7 74 2.4 SW 22 39 12 21 1012.8 1012.7 -
03/10:30pm 14.0 9.7 9.4 74 2.4 WSW 22 35 12 19 1012.6 1012.5 -
03/10:00pm 14.6 10.6 9.2 70 2.8 SW 20 32 11 17 1012.6 1012.5 -
03/09:30pm 15.8 11.9 7.3 57 4.2 SW 17 30 9 16 1012.4 1012.3 -
03/09:00pm 16.0 12.1 7.0 55 4.4 SW 17 28 9 15 1012.0 1011.9 0.0
03/08:30pm 16.3 12.6 6.4 52 4.8 SW 15 30 8 16 1011.6 1011.5 -
03/08:00pm 16.4 12.4 6.5 52 4.9 WSW 17 30 9 16 1011.2 1011.1 -
03/07:30pm 16.1 13.6 6.5 53 4.7 W 9 26 5 14 1010.5 1010.4 -
03/07:00pm 16.3 13.8 6.7 53 4.7 W 9 13 5 7 1010.1 1010.0 -
03/06:30pm 16.3 13.8 6.7 53 4.7 W 9 15 5 8 1009.5 1009.4 -
03/06:00pm 16.5 14.0 6.6 52 4.9 W 9 17 5 9 1008.7 1008.7 -
03/05:30pm 17.1 14.9 6.3 49 5.3 W 7 13 4 7 1008.2 1008.2 -
03/05:00pm 17.8 15.2 6.3 47 5.7 W 9 17 5 9 1007.4 1007.4 -
03/04:30pm 18.6 16.9 8.3 51 5.3 WNW 7 15 4 8 1006.8 1006.8 -
03/04:00pm 18.8 17.1 8.5 51 5.4 WNW 7 22 4 12 1006.3 1006.3 -
03/03:30pm 18.4 15.2 6.9 47 5.8 WNW 13 24 7 13 1006.2 1006.2 -
03/03:00pm 19.3 17.2 8.3 49 5.7 WNW 9 24 5 13 1005.8 1005.8 -
03/02:30pm 18.1 15.4 7.2 49 5.5 WNW 11 22 6 12 1005.6 1005.6 -
03/02:00pm 18.2 15.6 7.6 50 5.4 WNW 11 22 6 12 1005.7 1005.7 -
03/01:30pm 17.3 14.9 7.1 51 5.1 W 9 20 5 11 1005.6 1005.6 -
03/01:00pm 17.5 14.8 7.3 51 5.1 W 11 24 6 13 1005.7 1005.7 -
03/12:30pm 18.3 16.4 7.7 50 5.4 W 7 20 4 11 1006.1 1006.1 -
03/12:00pm 17.7 14.8 8.0 53 5.0 WNW 13 24 7 13 1006.6 1006.6 -
03/11:30am 18.8 16.2 7.9 49 5.6 W 11 24 6 13 1006.8 1006.8 -
03/11:00am 18.6 - 8.8 53 5.1 - - - - - 1006.5 1006.5 -
03/10:30am 18.6 16.0 9.4 55 4.8 WNW 13 26 7 14 1006.3 1006.3 -
03/10:00am 18.4 16.4 10.3 59 4.3 W 11 22 6 12 1006.0 1006.0 -
03/09:30am 17.7 16.3 10.8 64 3.7 W 9 20 5 11 1005.5 1005.5 -
03/09:00am 17.4 15.5 11.9 70 3.0 WNW 13 24 7 13 1005.8 1005.8 -
03/08:30am 16.8 16.3 12.5 76 2.4 NW 7 15 4 8 1005.8 1005.8 -
03/08:00am 15.5 14.6 12.6 83 1.6 NW 9 15 5 8 1005.6 1005.6 -
03/07:30am 14.3 13.3 12.3 88 1.1 NW 9 13 5 7 1005.2 1005.2 -
03/07:00am 13.5 12.6 12.7 95 0.4 NW 9 17 5 9 1005.0 1005.0 -
03/06:30am 12.9 11.2 12.3 96 0.3 NW 13 19 7 10 1005.0 1005.0 -
03/06:00am 12.8 11.4 12.2 96 0.3 NW 11 15 6 8 1004.7 1004.7 -
03/05:30am 13.1 11.3 12.0 93 0.6 NNW 13 17 7 9 1004.7 1004.7 -
03/05:00am 13.6 11.1 12.2 91 0.8 N 17 20 9 11 1004.7 1004.7 -
03/04:30am 13.4 12.3 11.8 90 0.9 N 9 13 5 7 1004.9 1004.9 -
03/04:00am 13.9 9.5 11.6 86 1.2 N 26 32 14 17 1005.2 1005.2 -
03/03:30am 14.5 9.7 11.8 84 1.5 NNE 28 32 15 17 1005.4 1005.4 -
03/03:00am 14.5 9.6 12.7 89 1.0 NNE 30 35 16 19 1005.9 1005.9 -
03/02:30am 13.4 9.2 12.5 94 0.5 NE 26 35 14 19 1005.6 1005.6 -
03/02:11am 13.3 12.2 12.0 92 0.7 NE 9 22 5 12 1006.8 1006.8 6.6
03/02:00am 13.3 12.4 11.2 87 1.1 WNW 7 13 4 7 1008.9 1008.9 6.4
03/01:30am 13.4 12.2 11.5 88 1.0 NNE 9 13 5 7 1008.5 1008.5 2.2
03/01:00am 13.7 13.3 11.0 84 1.4 SE 4 6 2 3 1008.0 1008.0 2.2
03/12:30am 13.8 12.7 9.8 77 2.1 W 6 11 3 6 1009.2 1009.2 1.0
03/12:00am 15.2 12.8 10.0 71 2.7 WNW 13 24 7 13 1009.8 1009.7 0.0
 
Date/Time
EST
Tmp

°C
App
Tmp
°C
Dew
Point
°C
Rel
Hum
%
Delta-T

°C
Wind Press
QNH
hPa
Press
MSL
hPa
Rain
since
9 am
mm
Dir
 
Spd
km/h
Gust
km/h
Spd
kts
Gust
kts
02/11:57pm 15.6 13.7 10.4 71 2.7 WNW 11 19 6 10 1009.2 1009.2 0.0
02/11:30pm 16.9 12.5 13.0 78 2.2 NNE 28 33 15 18 1007.1 1007.1 0.0
02/11:00pm 16.9 12.1 13.0 78 2.2 NNE 30 35 16 19 1007.5 1007.5 0.0
02/10:30pm 16.8 11.8 12.1 74 2.6 NNE 30 35 16 19 1008.4 1008.4 0.0
02/10:00pm 16.7 11.6 12.0 74 2.6 NNE 30 33 16 18 1009.4 1009.3 0.0
02/09:30pm 16.7 11.4 11.4 71 2.9 NNE 30 35 16 19 1009.9 1009.8 0.0
02/09:00pm 16.5 12.7 11.2 71 2.9 NNE 22 32 12 17 1010.5 1010.4 0.0
02/08:30pm 17.1 11.4 11.8 71 2.9 NNE 33 37 18 20 1010.8 1010.7 0.0
02/08:00pm 17.2 10.9 11.0 67 3.3 NNE 35 41 19 22 1010.8 1010.7 0.0
02/07:30pm 17.3 11.5 11.6 69 3.1 NNE 33 39 18 21 1011.0 1010.9 0.0
02/07:00pm 17.3 11.3 10.9 66 3.4 NNE 33 39 18 21 1011.5 1011.4 0.0
02/06:30pm 17.3 11.2 11.8 70 3.0 NNE 35 41 19 22 1011.6 1011.5 0.0
02/06:00pm 17.4 12.7 12.1 71 2.9 NNE 28 33 15 18 1011.6 1011.5 0.0
02/05:30pm 17.3 12.4 11.3 68 3.3 NNE 28 32 15 17 1012.0 1011.9 0.0
02/05:00pm 17.3 12.6 10.7 65 3.5 NNE 26 32 14 17 1011.9 1011.8 0.0
02/04:30pm 17.4 13.2 11.2 67 3.4 NNE 24 28 13 15 1012.3 1012.2 0.0
02/04:00pm 17.0 12.0 9.4 61 4.0 NNE 26 28 14 15 1012.1 1012.0 0.0
02/03:30pm 17.3 11.8 10.7 65 3.5 NNE 30 33 16 18 1012.1 1012.0 0.0
02/03:00pm 18.1 12.9 8.7 54 4.9 NNE 26 32 14 17 1012.3 1012.2 0.0
02/02:30pm 18.6 13.7 7.1 47 5.8 NNE 22 26 12 14 1012.8 1012.7 0.0
02/02:00pm 19.0 12.4 6.2 43 6.3 N 30 33 16 18 1013.2 1013.1 0.0
02/01:30pm 19.3 13.9 6.4 43 6.4 N 24 30 13 16 1013.7 1013.6 0.0
02/01:00pm 18.9 13.6 8.6 51 5.3 NNE 26 37 14 20 1014.1 1014.0 0.0
02/12:30pm 17.6 12.9 9.2 58 4.4 NNE 24 28 13 15 1014.8 1014.7 0.0
02/12:00pm 18.4 13.9 5.9 44 6.1 N 19 24 10 13 1015.3 1015.2 0.0
02/11:30am 19.5 15.9 6.6 43 6.5 NE 15 33 8 18 1015.9 1015.8 0.0

Latest Capital City Observations: Canberra | Sydney | Melbourne | Brisbane | Adelaide | Perth | Hobart | Darwin

Other Formats:

Comma delimited format used in spreadsheet applications
http://www.bom.gov.au/fwo/IDN60901/IDN60901.95770.axf

JavaScript Object Notation format (JSON) in row-major order
http://www.bom.gov.au/fwo/IDN60901/IDN60901.95770.json